sensor_id;sensor_type;location;lat;lon;timestamp;P1;durP1;ratioP1;P2;durP2;ratioP2
26536;SDS011;14204;51.262;5.488;2022-09-27T00:01:04;9.18;;;3.67;;
26536;SDS011;14204;51.262;5.488;2022-09-27T00:03:32;5.95;;;3.15;;
26536;SDS011;14204;51.262;5.488;2022-09-27T00:08:36;9.50;;;3.42;;
26536;SDS011;14204;51.262;5.488;2022-09-27T00:11:06;8.35;;;3.25;;
26536;SDS011;14204;51.262;5.488;2022-09-27T00:13:34;7.78;;;3.30;;
26536;SDS011;14204;51.262;5.488;2022-09-27T00:16:01;9.02;;;2.70;;
26536;SDS011;14204;51.262;5.488;2022-09-27T00:18:30;5.75;;;2.33;;
26536;SDS011;14204;51.262;5.488;2022-09-27T00:21:02;7.93;;;3.45;;
26536;SDS011;14204;51.262;5.488;2022-09-27T00:23:30;7.07;;;1.75;;
26536;SDS011;14204;51.262;5.488;2022-09-27T00:25:56;8.73;;;2.22;;
26536;SDS011;14204;51.262;5.488;2022-09-27T00:28:22;8.63;;;1.83;;
26536;SDS011;14204;51.262;5.488;2022-09-27T00:30:48;3.97;;;1.80;;
26536;SDS011;14204;51.262;5.488;2022-09-27T00:33:14;7.75;;;1.63;;
26536;SDS011;14204;51.262;5.488;2022-09-27T00:35:39;4.75;;;1.52;;
26536;SDS011;14204;51.262;5.488;2022-09-27T00:38:05;5.13;;;1.80;;
26536;SDS011;14204;51.262;5.488;2022-09-27T00:40:31;3.53;;;1.77;;
26536;SDS011;14204;51.262;5.488;2022-09-27T00:42:57;4.00;;;2.10;;
26536;SDS011;14204;51.262;5.488;2022-09-27T00:45:22;6.63;;;2.00;;
26536;SDS011;14204;51.262;5.488;2022-09-27T00:47:58;4.57;;;2.13;;
26536;SDS011;14204;51.262;5.488;2022-09-27T00:50:29;5.57;;;2.28;;
26536;SDS011;14204;51.262;5.488;2022-09-27T00:55:44;7.88;;;1.63;;
26536;SDS011;14204;51.262;5.488;2022-09-27T00:58:17;4.18;;;1.10;;
26536;SDS011;14204;51.262;5.488;2022-09-27T01:00:47;6.43;;;1.58;;
26536;SDS011;14204;51.262;5.488;2022-09-27T01:03:31;4.15;;;1.30;;
26536;SDS011;14204;51.262;5.488;2022-09-27T01:06:03;9.27;;;2.20;;
26536;SDS011;14204;51.262;5.488;2022-09-27T01:08:32;5.72;;;1.60;;
26536;SDS011;14204;51.262;5.488;2022-09-27T01:13:38;7.47;;;1.92;;
26536;SDS011;14204;51.262;5.488;2022-09-27T01:21:56;8.05;;;1.92;;
26536;SDS011;14204;51.262;5.488;2022-09-27T01:35:42;6.53;;;1.35;;
26536;SDS011;14204;51.262;5.488;2022-09-27T01:38:22;4.78;;;1.30;;
26536;SDS011;14204;51.262;5.488;2022-09-27T01:44:14;7.30;;;1.95;;
26536;SDS011;14204;51.262;5.488;2022-09-27T01:46:54;5.45;;;1.40;;
26536;SDS011;14204;51.262;5.488;2022-09-27T01:49:53;5.72;;;1.40;;
26536;SDS011;14204;51.262;5.488;2022-09-27T01:52:28;5.82;;;1.20;;
26536;SDS011;14204;51.262;5.488;2022-09-27T01:55:00;4.78;;;0.98;;
26536;SDS011;14204;51.262;5.488;2022-09-27T01:57:32;5.70;;;1.20;;
26536;SDS011;14204;51.262;5.488;2022-09-27T02:00:02;5.43;;;1.40;;
26536;SDS011;14204;51.262;5.488;2022-09-27T02:02:32;7.88;;;0.82;;
26536;SDS011;14204;51.262;5.488;2022-09-27T02:05:06;2.03;;;0.68;;
26536;SDS011;14204;51.262;5.488;2022-09-27T02:07:39;2.33;;;0.50;;
26536;SDS011;14204;51.262;5.488;2022-09-27T02:10:14;3.67;;;1.00;;
26536;SDS011;14204;51.262;5.488;2022-09-27T02:12:55;3.15;;;0.57;;
26536;SDS011;14204;51.262;5.488;2022-09-27T02:15:57;4.72;;;0.95;;
26536;SDS011;14204;51.262;5.488;2022-09-27T02:21:18;2.97;;;0.68;;
26536;SDS011;14204;51.262;5.488;2022-09-27T02:23:46;2.47;;;0.70;;
26536;SDS011;14204;51.262;5.488;2022-09-27T02:26:18;4.78;;;0.70;;
26536;SDS011;14204;51.262;5.488;2022-09-27T02:29:08;6.15;;;0.80;;
26536;SDS011;14204;51.262;5.488;2022-09-27T02:31:37;1.48;;;0.60;;
26536;SDS011;14204;51.262;5.488;2022-09-27T02:34:10;4.80;;;0.70;;
26536;SDS011;14204;51.262;5.488;2022-09-27T02:36:42;3.40;;;0.60;;
26536;SDS011;14204;51.262;5.488;2022-09-27T02:39:08;4.30;;;0.60;;
26536;SDS011;14204;51.262;5.488;2022-09-27T02:41:35;2.60;;;0.90;;
26536;SDS011;14204;51.262;5.488;2022-09-27T02:44:01;5.85;;;1.17;;
26536;SDS011;14204;51.262;5.488;2022-09-27T02:49:09;5.22;;;1.05;;
26536;SDS011;14204;51.262;5.488;2022-09-27T03:02:28;3.22;;;0.77;;
26536;SDS011;14204;51.262;5.488;2022-09-27T03:05:05;4.80;;;0.63;;
26536;SDS011;14204;51.262;5.488;2022-09-27T03:07:34;3.22;;;0.60;;
26536;SDS011;14204;51.262;5.488;2022-09-27T03:10:02;6.47;;;1.02;;
26536;SDS011;14204;51.262;5.488;2022-09-27T03:12:29;3.33;;;0.82;;
26536;SDS011;14204;51.262;5.488;2022-09-27T03:14:56;15.48;;;1.52;;
26536;SDS011;14204;51.262;5.488;2022-09-27T03:17:22;6.68;;;1.20;;
26536;SDS011;14204;51.262;5.488;2022-09-27T03:19:49;5.00;;;0.85;;
26536;SDS011;14204;51.262;5.488;2022-09-27T03:22:14;5.53;;;0.68;;
26536;SDS011;14204;51.262;5.488;2022-09-27T03:24:40;2.72;;;1.02;;
26536;SDS011;14204;51.262;5.488;2022-09-27T03:27:06;5.30;;;0.90;;
26536;SDS011;14204;51.262;5.488;2022-09-27T03:29:32;4.13;;;0.70;;
26536;SDS011;14204;51.262;5.488;2022-09-27T03:31:58;7.63;;;1.00;;
26536;SDS011;14204;51.262;5.488;2022-09-27T03:34:24;3.30;;;0.80;;
26536;SDS011;14204;51.262;5.488;2022-09-27T03:36:49;3.92;;;0.77;;
26536;SDS011;14204;51.262;5.488;2022-09-27T03:39:15;6.03;;;0.77;;
26536;SDS011;14204;51.262;5.488;2022-09-27T03:41:41;2.55;;;0.60;;
26536;SDS011;14204;51.262;5.488;2022-09-27T03:44:07;4.57;;;1.00;;
26536;SDS011;14204;51.262;5.488;2022-09-27T03:46:33;3.30;;;1.08;;
26536;SDS011;14204;51.262;5.488;2022-09-27T03:48:58;6.65;;;1.75;;
26536;SDS011;14204;51.262;5.488;2022-09-27T03:51:24;5.32;;;0.80;;
26536;SDS011;14204;51.262;5.488;2022-09-27T03:53:50;4.90;;;0.77;;
26536;SDS011;14204;51.262;5.488;2022-09-27T03:56:16;8.65;;;1.25;;
26536;SDS011;14204;51.262;5.488;2022-09-27T03:58:42;5.35;;;1.10;;
26536;SDS011;14204;51.262;5.488;2022-09-27T04:01:07;4.10;;;0.70;;
26536;SDS011;14204;51.262;5.488;2022-09-27T04:03:33;6.07;;;1.10;;
26536;SDS011;14204;51.262;5.488;2022-09-27T04:06:00;3.92;;;1.20;;
26536;SDS011;14204;51.262;5.488;2022-09-27T04:08:26;2.92;;;0.85;;
26536;SDS011;14204;51.262;5.488;2022-09-27T04:10:52;6.07;;;0.90;;
26536;SDS011;14204;51.262;5.488;2022-09-27T04:13:17;3.35;;;0.98;;
26536;SDS011;14204;51.262;5.488;2022-09-27T04:15:43;9.38;;;1.30;;
26536;SDS011;14204;51.262;5.488;2022-09-27T04:18:09;2.03;;;0.70;;
26536;SDS011;14204;51.262;5.488;2022-09-27T04:20:35;6.95;;;1.00;;
26536;SDS011;14204;51.262;5.488;2022-09-27T04:23:01;2.45;;;0.85;;
26536;SDS011;14204;51.262;5.488;2022-09-27T04:25:27;4.60;;;1.00;;
26536;SDS011;14204;51.262;5.488;2022-09-27T04:27:53;4.22;;;1.00;;
26536;SDS011;14204;51.262;5.488;2022-09-27T04:30:19;4.63;;;1.23;;
26536;SDS011;14204;51.262;5.488;2022-09-27T04:32:46;2.20;;;0.60;;
26536;SDS011;14204;51.262;5.488;2022-09-27T04:35:12;3.92;;;0.73;;
26536;SDS011;14204;51.262;5.488;2022-09-27T04:37:57;5.90;;;1.05;;
26536;SDS011;14204;51.262;5.488;2022-09-27T04:40:23;5.40;;;0.70;;
26536;SDS011;14204;51.262;5.488;2022-09-27T04:42:49;7.70;;;0.90;;
26536;SDS011;14204;51.262;5.488;2022-09-27T04:45:16;3.92;;;0.63;;
26536;SDS011;14204;51.262;5.488;2022-09-27T04:47:46;3.75;;;0.75;;
26536;SDS011;14204;51.262;5.488;2022-09-27T04:50:13;5.32;;;0.65;;
26536;SDS011;14204;51.262;5.488;2022-09-27T04:52:40;6.20;;;1.00;;
26536;SDS011;14204;51.262;5.488;2022-09-27T04:55:09;2.35;;;1.00;;
26536;SDS011;14204;51.262;5.488;2022-09-27T04:57:35;5.47;;;0.75;;
26536;SDS011;14204;51.262;5.488;2022-09-27T05:00:01;3.40;;;1.00;;
26536;SDS011;14204;51.262;5.488;2022-09-27T05:02:28;5.25;;;0.80;;
26536;SDS011;14204;51.262;5.488;2022-09-27T05:04:54;4.88;;;0.80;;
26536;SDS011;14204;51.262;5.488;2022-09-27T05:07:23;6.20;;;1.15;;
26536;SDS011;14204;51.262;5.488;2022-09-27T05:09:52;6.90;;;1.00;;
26536;SDS011;14204;51.262;5.488;2022-09-27T05:12:19;3.92;;;1.00;;
26536;SDS011;14204;51.262;5.488;2022-09-27T05:14:45;3.00;;;1.08;;
26536;SDS011;14204;51.262;5.488;2022-09-27T05:17:11;2.67;;;0.93;;
26536;SDS011;14204;51.262;5.488;2022-09-27T05:19:37;2.03;;;0.52;;
26536;SDS011;14204;51.262;5.488;2022-09-27T05:22:03;5.22;;;0.57;;
26536;SDS011;14204;51.262;5.488;2022-09-27T05:24:30;2.97;;;0.47;;
26536;SDS011;14204;51.262;5.488;2022-09-27T05:26:57;2.28;;;0.43;;
26536;SDS011;14204;51.262;5.488;2022-09-27T05:29:26;5.50;;;0.60;;
26536;SDS011;14204;51.262;5.488;2022-09-27T05:31:51;6.32;;;0.88;;
26536;SDS011;14204;51.262;5.488;2022-09-27T05:34:17;2.72;;;0.75;;
26536;SDS011;14204;51.262;5.488;2022-09-27T05:36:48;3.50;;;0.75;;
26536;SDS011;14204;51.262;5.488;2022-09-27T05:39:14;5.78;;;1.50;;
26536;SDS011;14204;51.262;5.488;2022-09-27T05:41:43;2.85;;;0.90;;
26536;SDS011;14204;51.262;5.488;2022-09-27T05:44:10;2.58;;;1.60;;
26536;SDS011;14204;51.262;5.488;2022-09-27T05:46:37;2.85;;;1.10;;
26536;SDS011;14204;51.262;5.488;2022-09-27T05:49:03;3.03;;;1.33;;
26536;SDS011;14204;51.262;5.488;2022-09-27T05:51:29;4.88;;;1.38;;
26536;SDS011;14204;51.262;5.488;2022-09-27T05:53:55;2.13;;;1.27;;
26536;SDS011;14204;51.262;5.488;2022-09-27T05:56:20;2.72;;;1.20;;
26536;SDS011;14204;51.262;5.488;2022-09-27T05:58:46;4.13;;;1.40;;
26536;SDS011;14204;51.262;5.488;2022-09-27T06:01:12;2.63;;;0.90;;
26536;SDS011;14204;51.262;5.488;2022-09-27T06:03:37;5.05;;;1.25;;
26536;SDS011;14204;51.262;5.488;2022-09-27T06:06:05;2.97;;;1.23;;
26536;SDS011;14204;51.262;5.488;2022-09-27T06:08:31;3.08;;;1.05;;
26536;SDS011;14204;51.262;5.488;2022-09-27T06:11:06;2.38;;;1.40;;
26536;SDS011;14204;51.262;5.488;2022-09-27T06:13:33;3.00;;;1.05;;
26536;SDS011;14204;51.262;5.488;2022-09-27T06:16:00;1.73;;;1.20;;
26536;SDS011;14204;51.262;5.488;2022-09-27T06:18:27;4.07;;;1.05;;
26536;SDS011;14204;51.262;5.488;2022-09-27T06:20:53;2.00;;;1.23;;
26536;SDS011;14204;51.262;5.488;2022-09-27T06:23:20;2.83;;;1.30;;
26536;SDS011;14204;51.262;5.488;2022-09-27T06:25:47;4.15;;;1.52;;
26536;SDS011;14204;51.262;5.488;2022-09-27T06:28:14;5.22;;;1.63;;
26536;SDS011;14204;51.262;5.488;2022-09-27T06:30:42;5.60;;;1.70;;
26536;SDS011;14204;51.262;5.488;2022-09-27T06:33:11;2.80;;;1.63;;
26536;SDS011;14204;51.262;5.488;2022-09-27T06:35:39;6.90;;;1.75;;
26536;SDS011;14204;51.262;5.488;2022-09-27T06:38:06;3.67;;;1.67;;
26536;SDS011;14204;51.262;5.488;2022-09-27T06:40:34;6.97;;;1.90;;
26536;SDS011;14204;51.262;5.488;2022-09-27T06:43:04;3.60;;;1.80;;
26536;SDS011;14204;51.262;5.488;2022-09-27T06:45:32;4.53;;;2.22;;
26536;SDS011;14204;51.262;5.488;2022-09-27T06:48:00;5.45;;;2.25;;
26536;SDS011;14204;51.262;5.488;2022-09-27T06:50:33;4.07;;;1.63;;
26536;SDS011;14204;51.262;5.488;2022-09-27T06:53:00;5.50;;;1.83;;
26536;SDS011;14204;51.262;5.488;2022-09-27T06:55:26;8.27;;;2.10;;
26536;SDS011;14204;51.262;5.488;2022-09-27T06:57:53;4.75;;;2.22;;
26536;SDS011;14204;51.262;5.488;2022-09-27T07:00:37;4.10;;;1.85;;
26536;SDS011;14204;51.262;5.488;2022-09-27T07:03:03;4.75;;;1.77;;
26536;SDS011;14204;51.262;5.488;2022-09-27T07:05:29;2.90;;;1.90;;
26536;SDS011;14204;51.262;5.488;2022-09-27T07:07:55;3.50;;;1.88;;
26536;SDS011;14204;51.262;5.488;2022-09-27T07:10:26;3.40;;;1.95;;
26536;SDS011;14204;51.262;5.488;2022-09-27T07:12:53;3.53;;;2.40;;
26536;SDS011;14204;51.262;5.488;2022-09-27T07:15:20;3.30;;;2.55;;
26536;SDS011;14204;51.262;5.488;2022-09-27T07:17:46;4.40;;;2.15;;
26536;SDS011;14204;51.262;5.488;2022-09-27T07:20:22;5.22;;;2.78;;
26536;SDS011;14204;51.262;5.488;2022-09-27T07:22:48;5.65;;;2.97;;
26536;SDS011;14204;51.262;5.488;2022-09-27T07:25:14;8.05;;;3.60;;
26536;SDS011;14204;51.262;5.488;2022-09-27T07:27:40;5.55;;;3.55;;
26536;SDS011;14204;51.262;5.488;2022-09-27T07:30:06;5.40;;;3.30;;
26536;SDS011;14204;51.262;5.488;2022-09-27T07:32:33;5.38;;;3.67;;
26536;SDS011;14204;51.262;5.488;2022-09-27T07:35:01;7.25;;;4.13;;
26536;SDS011;14204;51.262;5.488;2022-09-27T07:37:29;8.27;;;4.20;;
26536;SDS011;14204;51.262;5.488;2022-09-27T07:39:56;10.55;;;4.43;;
26536;SDS011;14204;51.262;5.488;2022-09-27T07:42:23;7.57;;;3.90;;
26536;SDS011;14204;51.262;5.488;2022-09-27T07:44:48;6.68;;;3.72;;
26536;SDS011;14204;51.262;5.488;2022-09-27T07:47:14;6.78;;;4.05;;
26536;SDS011;14204;51.262;5.488;2022-09-27T07:49:40;8.45;;;4.10;;
26536;SDS011;14204;51.262;5.488;2022-09-27T07:52:06;6.28;;;4.10;;
26536;SDS011;14204;51.262;5.488;2022-09-27T07:54:32;8.73;;;5.15;;
26536;SDS011;14204;51.262;5.488;2022-09-27T07:56:57;9.70;;;5.28;;
26536;SDS011;14204;51.262;5.488;2022-09-27T07:59:23;7.95;;;5.18;;
26536;SDS011;14204;51.262;5.488;2022-09-27T08:01:48;6.03;;;4.38;;
26536;SDS011;14204;51.262;5.488;2022-09-27T08:04:14;8.45;;;4.25;;
26536;SDS011;14204;51.262;5.488;2022-09-27T08:06:40;7.13;;;4.55;;
26536;SDS011;14204;51.262;5.488;2022-09-27T08:09:06;8.07;;;4.10;;
26536;SDS011;14204;51.262;5.488;2022-09-27T08:11:34;7.47;;;4.20;;
26536;SDS011;14204;51.262;5.488;2022-09-27T08:14:01;6.80;;;4.10;;
26536;SDS011;14204;51.262;5.488;2022-09-27T08:16:28;8.40;;;4.10;;
26536;SDS011;14204;51.262;5.488;2022-09-27T08:18:54;10.02;;;4.40;;
26536;SDS011;14204;51.262;5.488;2022-09-27T08:21:20;8.45;;;4.40;;
26536;SDS011;14204;51.262;5.488;2022-09-27T08:23:45;6.93;;;4.43;;
26536;SDS011;14204;51.262;5.488;2022-09-27T08:26:11;5.85;;;4.47;;
26536;SDS011;14204;51.262;5.488;2022-09-27T08:28:36;7.28;;;4.68;;
26536;SDS011;14204;51.262;5.488;2022-09-27T08:31:02;12.35;;;5.05;;
26536;SDS011;14204;51.262;5.488;2022-09-27T08:33:28;8.35;;;4.80;;
26536;SDS011;14204;51.262;5.488;2022-09-27T08:35:54;10.05;;;6.63;;
26536;SDS011;14204;51.262;5.488;2022-09-27T08:38:19;8.48;;;5.82;;
26536;SDS011;14204;51.262;5.488;2022-09-27T08:43:33;8.25;;;6.22;;
26536;SDS011;14204;51.262;5.488;2022-09-27T08:48:34;12.95;;;6.25;;
26536;SDS011;14204;51.262;5.488;2022-09-27T08:51:02;11.73;;;7.22;;
26536;SDS011;14204;51.262;5.488;2022-09-27T08:53:32;10.52;;;6.80;;
26536;SDS011;14204;51.262;5.488;2022-09-27T08:56:03;11.63;;;7.20;;
26536;SDS011;14204;51.262;5.488;2022-09-27T08:58:36;9.65;;;7.60;;
26536;SDS011;14204;51.262;5.488;2022-09-27T09:01:12;10.32;;;8.25;;
26536;SDS011;14204;51.262;5.488;2022-09-27T09:03:43;15.82;;;7.93;;
26536;SDS011;14204;51.262;5.488;2022-09-27T09:06:20;13.82;;;8.38;;
26536;SDS011;14204;51.262;5.488;2022-09-27T09:09:10;15.35;;;7.90;;
26536;SDS011;14204;51.262;5.488;2022-09-27T09:14:36;10.32;;;7.82;;
26536;SDS011;14204;51.262;5.488;2022-09-27T09:25:55;15.52;;;9.43;;
26536;SDS011;14204;51.262;5.488;2022-09-27T09:28:35;11.85;;;9.40;;
26536;SDS011;14204;51.262;5.488;2022-09-27T09:31:06;13.52;;;10.18;;
26536;SDS011;14204;51.262;5.488;2022-09-27T09:33:54;13.68;;;9.57;;
26536;SDS011;14204;51.262;5.488;2022-09-27T09:36:36;15.07;;;9.93;;
26536;SDS011;14204;51.262;5.488;2022-09-27T09:42:03;11.90;;;9.20;;
26536;SDS011;14204;51.262;5.488;2022-09-27T09:47:32;10.73;;;7.25;;
26536;SDS011;14204;51.262;5.488;2022-09-27T09:50:05;11.35;;;8.13;;
26536;SDS011;14204;51.262;5.488;2022-09-27T09:52:54;10.82;;;6.90;;
26536;SDS011;14204;51.262;5.488;2022-09-27T09:55:28;13.90;;;7.38;;
26536;SDS011;14204;51.262;5.488;2022-09-27T10:00:46;8.63;;;7.75;;
26536;SDS011;14204;51.262;5.488;2022-09-27T10:03:14;8.88;;;7.97;;
26536;SDS011;14204;51.262;5.488;2022-09-27T10:05:41;8.40;;;7.55;;
26536;SDS011;14204;51.262;5.488;2022-09-27T10:08:15;8.85;;;8.02;;
26536;SDS011;14204;51.262;5.488;2022-09-27T10:10:43;10.32;;;6.93;;
26536;SDS011;14204;51.262;5.488;2022-09-27T10:13:11;9.77;;;7.18;;
26536;SDS011;14204;51.262;5.488;2022-09-27T10:15:45;10.93;;;7.68;;
26536;SDS011;14204;51.262;5.488;2022-09-27T10:18:26;8.68;;;6.90;;
26536;SDS011;14204;51.262;5.488;2022-09-27T10:20:58;8.23;;;7.28;;
26536;SDS011;14204;51.262;5.488;2022-09-27T10:23:26;8.88;;;6.38;;
26536;SDS011;14204;51.262;5.488;2022-09-27T10:25:53;9.20;;;6.50;;
26536;SDS011;14204;51.262;5.488;2022-09-27T10:28:25;7.45;;;6.10;;
26536;SDS011;14204;51.262;5.488;2022-09-27T10:31:05;7.35;;;5.97;;
26536;SDS011;14204;51.262;5.488;2022-09-27T10:33:33;8.20;;;5.63;;
26536;SDS011;14204;51.262;5.488;2022-09-27T10:36:01;6.03;;;4.55;;
26536;SDS011;14204;51.262;5.488;2022-09-27T10:38:28;8.10;;;5.15;;
26536;SDS011;14204;51.262;5.488;2022-09-27T10:41:14;5.32;;;4.20;;
26536;SDS011;14204;51.262;5.488;2022-09-27T10:43:45;4.00;;;3.60;;
26536;SDS011;14204;51.262;5.488;2022-09-27T10:46:12;2.90;;;2.70;;
26536;SDS011;14204;51.262;5.488;2022-09-27T10:48:45;3.97;;;3.40;;
26536;SDS011;14204;51.262;5.488;2022-09-27T10:56:31;6.30;;;3.22;;
26536;SDS011;14204;51.262;5.488;2022-09-27T10:58:58;4.85;;;3.25;;
26536;SDS011;14204;51.262;5.488;2022-09-27T11:01:26;4.45;;;3.38;;
26536;SDS011;14204;51.262;5.488;2022-09-27T11:04:15;3.72;;;3.38;;
26536;SDS011;14204;51.262;5.488;2022-09-27T11:06:45;4.72;;;2.63;;
26536;SDS011;14204;51.262;5.488;2022-09-27T11:09:18;3.05;;;1.98;;
26536;SDS011;14204;51.262;5.488;2022-09-27T11:11:48;1.95;;;1.83;;
26536;SDS011;14204;51.262;5.488;2022-09-27T11:14:18;4.75;;;1.80;;
26536;SDS011;14204;51.262;5.488;2022-09-27T11:16:47;3.28;;;1.60;;
26536;SDS011;14204;51.262;5.488;2022-09-27T11:22:35;2.55;;;1.95;;
26536;SDS011;14204;51.262;5.488;2022-09-27T11:25:17;4.13;;;2.05;;
26536;SDS011;14204;51.262;5.488;2022-09-27T11:30:42;3.95;;;1.80;;
26536;SDS011;14204;51.262;5.488;2022-09-27T11:39:22;4.20;;;1.67;;
26536;SDS011;14204;51.262;5.488;2022-09-27T11:56:18;3.60;;;2.08;;
26536;SDS011;14204;51.262;5.488;2022-09-27T12:09:44;4.15;;;2.20;;
26536;SDS011;14204;51.262;5.488;2022-09-27T12:12:17;3.65;;;2.13;;
26536;SDS011;14204;51.262;5.488;2022-09-27T12:14:48;3.60;;;1.90;;
26536;SDS011;14204;51.262;5.488;2022-09-27T12:17:25;4.72;;;1.98;;
26536;SDS011;14204;51.262;5.488;2022-09-27T12:19:56;3.55;;;2.67;;
26536;SDS011;14204;51.262;5.488;2022-09-27T12:22:28;3.38;;;2.50;;
26536;SDS011;14204;51.262;5.488;2022-09-27T12:24:59;4.68;;;2.25;;
26536;SDS011;14204;51.262;5.488;2022-09-27T12:27:39;4.32;;;2.17;;
26536;SDS011;14204;51.262;5.488;2022-09-27T12:30:18;5.30;;;2.33;;
26536;SDS011;14204;51.262;5.488;2022-09-27T12:35:33;2.30;;;2.05;;
26536;SDS011;14204;51.262;5.488;2022-09-27T12:38:22;6.07;;;2.72;;
26536;SDS011;14204;51.262;5.488;2022-09-27T12:40:57;6.10;;;2.80;;
26536;SDS011;14204;51.262;5.488;2022-09-27T12:43:28;5.70;;;2.70;;
26536;SDS011;14204;51.262;5.488;2022-09-27T12:51:35;6.32;;;2.97;;
26536;SDS011;14204;51.262;5.488;2022-09-27T13:13:28;4.55;;;2.42;;
26536;SDS011;14204;51.262;5.488;2022-09-27T13:15:59;6.35;;;2.35;;
26536;SDS011;14204;51.262;5.488;2022-09-27T13:18:30;4.95;;;2.85;;
26536;SDS011;14204;51.262;5.488;2022-09-27T13:21:00;5.72;;;2.88;;
26536;SDS011;14204;51.262;5.488;2022-09-27T13:25:57;13.32;;;6.78;;
26536;SDS011;14204;51.262;5.488;2022-09-27T13:30:56;5.72;;;3.10;;
26536;SDS011;14204;51.262;5.488;2022-09-27T13:33:40;6.43;;;2.88;;
26536;SDS011;14204;51.262;5.488;2022-09-27T13:39:15;3.47;;;1.38;;
26536;SDS011;14204;51.262;5.488;2022-09-27T13:49:48;7.05;;;1.40;;
26536;SDS011;14204;51.262;5.488;2022-09-27T13:52:24;3.63;;;1.10;;
26536;SDS011;14204;51.262;5.488;2022-09-27T13:55:01;6.43;;;1.90;;
26536;SDS011;14204;51.262;5.488;2022-09-27T14:00:39;6.43;;;1.75;;
26536;SDS011;14204;51.262;5.488;2022-09-27T14:05:46;9.05;;;1.95;;
26536;SDS011;14204;51.262;5.488;2022-09-27T14:08:28;6.32;;;2.03;;
26536;SDS011;14204;51.262;5.488;2022-09-27T14:10:58;2.88;;;1.25;;
26536;SDS011;14204;51.262;5.488;2022-09-27T14:13:26;4.55;;;1.45;;
26536;SDS011;14204;51.262;5.488;2022-09-27T14:15:55;3.50;;;1.60;;
26536;SDS011;14204;51.262;5.488;2022-09-27T14:18:26;7.20;;;2.08;;
26536;SDS011;14204;51.262;5.488;2022-09-27T14:21:10;7.22;;;1.70;;
26536;SDS011;14204;51.262;5.488;2022-09-27T14:23:42;3.30;;;1.38;;
26536;SDS011;14204;51.262;5.488;2022-09-27T14:26:20;4.22;;;1.30;;
26536;SDS011;14204;51.262;5.488;2022-09-27T14:28:50;1.77;;;1.20;;
26536;SDS011;14204;51.262;5.488;2022-09-27T14:31:18;2.92;;;1.10;;
26536;SDS011;14204;51.262;5.488;2022-09-27T14:33:47;4.90;;;1.60;;
26536;SDS011;14204;51.262;5.488;2022-09-27T14:36:24;4.03;;;1.75;;
26536;SDS011;14204;51.262;5.488;2022-09-27T14:39:13;2.35;;;1.38;;
26536;SDS011;14204;51.262;5.488;2022-09-27T14:41:56;3.95;;;1.58;;
26536;SDS011;14204;51.262;5.488;2022-09-27T14:44:23;3.40;;;1.90;;
26536;SDS011;14204;51.262;5.488;2022-09-27T14:47:35;7.53;;;1.55;;
26536;SDS011;14204;51.262;5.488;2022-09-27T14:49:52;5.88;;;1.45;;
26536;SDS011;14204;51.262;5.488;2022-09-27T14:52:22;2.20;;;1.50;;
26536;SDS011;14204;51.262;5.488;2022-09-27T14:55:01;5.30;;;1.65;;
26536;SDS011;14204;51.262;5.488;2022-09-27T14:57:32;3.35;;;1.60;;
26536;SDS011;14204;51.262;5.488;2022-09-27T15:00:00;4.65;;;1.55;;
26536;SDS011;14204;51.262;5.488;2022-09-27T15:02:39;4.93;;;1.52;;
26536;SDS011;14204;51.262;5.488;2022-09-27T15:05:11;2.90;;;1.23;;
26536;SDS011;14204;51.262;5.488;2022-09-27T15:07:40;3.92;;;1.65;;
26536;SDS011;14204;51.262;5.488;2022-09-27T15:10:11;3.00;;;1.52;;
26536;SDS011;14204;51.262;5.488;2022-09-27T15:12:38;8.95;;;2.13;;
26536;SDS011;14204;51.262;5.488;2022-09-27T15:15:05;4.05;;;1.63;;
26536;SDS011;14204;51.262;5.488;2022-09-27T15:17:34;7.57;;;1.80;;
26536;SDS011;14204;51.262;5.488;2022-09-27T15:20:23;11.07;;;3.15;;
26536;SDS011;14204;51.262;5.488;2022-09-27T15:22:55;6.68;;;2.45;;
26536;SDS011;14204;51.262;5.488;2022-09-27T15:28:00;6.30;;;2.50;;
26536;SDS011;14204;51.262;5.488;2022-09-27T15:30:39;6.88;;;2.40;;
26536;SDS011;14204;51.262;5.488;2022-09-27T15:33:07;8.38;;;2.70;;
26536;SDS011;14204;51.262;5.488;2022-09-27T15:35:47;8.43;;;2.95;;
26536;SDS011;14204;51.262;5.488;2022-09-27T15:43:17;6.07;;;2.65;;
26536;SDS011;14204;51.262;5.488;2022-09-27T15:45:53;5.38;;;2.22;;
26536;SDS011;14204;51.262;5.488;2022-09-27T15:48:19;7.40;;;2.45;;
26536;SDS011;14204;51.262;5.488;2022-09-27T15:50:45;7.20;;;2.30;;
26536;SDS011;14204;51.262;5.488;2022-09-27T15:53:38;6.93;;;2.63;;
26536;SDS011;14204;51.262;5.488;2022-09-27T15:55:57;3.15;;;1.90;;
26536;SDS011;14204;51.262;5.488;2022-09-27T15:58:24;5.22;;;2.38;;
26536;SDS011;14204;51.262;5.488;2022-09-27T16:00:53;5.72;;;3.00;;
26536;SDS011;14204;51.262;5.488;2022-09-27T16:03:21;4.50;;;2.80;;
26536;SDS011;14204;51.262;5.488;2022-09-27T16:05:48;6.03;;;2.97;;
26536;SDS011;14204;51.262;5.488;2022-09-27T16:08:14;7.70;;;3.83;;
26536;SDS011;14204;51.262;5.488;2022-09-27T16:10:50;4.57;;;3.35;;
26536;SDS011;14204;51.262;5.488;2022-09-27T16:13:17;11.27;;;3.50;;
26536;SDS011;14204;51.262;5.488;2022-09-27T16:15:43;6.35;;;2.85;;
26536;SDS011;14204;51.262;5.488;2022-09-27T16:18:09;5.88;;;2.55;;
26536;SDS011;14204;51.262;5.488;2022-09-27T16:20:35;5.68;;;3.22;;
26536;SDS011;14204;51.262;5.488;2022-09-27T16:23:01;5.28;;;3.28;;
26536;SDS011;14204;51.262;5.488;2022-09-27T16:25:26;6.10;;;3.22;;
26536;SDS011;14204;51.262;5.488;2022-09-27T16:27:52;5.75;;;3.28;;
26536;SDS011;14204;51.262;5.488;2022-09-27T16:30:20;7.80;;;3.40;;
26536;SDS011;14204;51.262;5.488;2022-09-27T16:32:47;5.90;;;5.05;;
26536;SDS011;14204;51.262;5.488;2022-09-27T16:35:13;6.53;;;4.10;;
26536;SDS011;14204;51.262;5.488;2022-09-27T16:37:40;11.73;;;4.85;;
26536;SDS011;14204;51.262;5.488;2022-09-27T16:40:07;12.52;;;5.50;;
26536;SDS011;14204;51.262;5.488;2022-09-27T16:42:34;10.75;;;4.40;;
26536;SDS011;14204;51.262;5.488;2022-09-27T16:45:00;8.07;;;4.53;;
26536;SDS011;14204;51.262;5.488;2022-09-27T16:47:27;12.18;;;4.70;;
26536;SDS011;14204;51.262;5.488;2022-09-27T16:49:53;7.10;;;4.90;;
26536;SDS011;14204;51.262;5.488;2022-09-27T16:52:37;8.25;;;5.05;;
26536;SDS011;14204;51.262;5.488;2022-09-27T16:55:03;13.23;;;6.25;;
26536;SDS011;14204;51.262;5.488;2022-09-27T16:57:31;9.68;;;5.50;;
26536;SDS011;14204;51.262;5.488;2022-09-27T16:59:58;12.52;;;5.53;;
26536;SDS011;14204;51.262;5.488;2022-09-27T17:02:25;10.65;;;4.90;;
26536;SDS011;14204;51.262;5.488;2022-09-27T17:04:51;7.80;;;4.80;;
26536;SDS011;14204;51.262;5.488;2022-09-27T17:07:20;15.45;;;5.15;;
26536;SDS011;14204;51.262;5.488;2022-09-27T17:09:45;8.73;;;5.47;;
26536;SDS011;14204;51.262;5.488;2022-09-27T17:12:12;8.90;;;4.57;;
26536;SDS011;14204;51.262;5.488;2022-09-27T17:14:38;8.55;;;4.25;;
26536;SDS011;14204;51.262;5.488;2022-09-27T17:17:03;5.82;;;4.10;;
26536;SDS011;14204;51.262;5.488;2022-09-27T17:19:30;6.40;;;2.92;;
26536;SDS011;14204;51.262;5.488;2022-09-27T17:21:56;10.95;;;4.57;;
26536;SDS011;14204;51.262;5.488;2022-09-27T17:24:22;11.48;;;6.68;;
26536;SDS011;14204;51.262;5.488;2022-09-27T17:26:48;9.77;;;4.90;;
26536;SDS011;14204;51.262;5.488;2022-09-27T17:29:14;8.65;;;4.43;;
26536;SDS011;14204;51.262;5.488;2022-09-27T17:31:40;7.15;;;4.47;;
26536;SDS011;14204;51.262;5.488;2022-09-27T17:34:07;11.02;;;4.38;;
26536;SDS011;14204;51.262;5.488;2022-09-27T17:36:36;7.35;;;4.15;;
26536;SDS011;14204;51.262;5.488;2022-09-27T17:39:05;6.10;;;4.00;;
26536;SDS011;14204;51.262;5.488;2022-09-27T17:41:31;8.77;;;3.72;;
26536;SDS011;14204;51.262;5.488;2022-09-27T17:43:59;6.22;;;3.95;;
26536;SDS011;14204;51.262;5.488;2022-09-27T17:46:26;8.05;;;3.50;;
26536;SDS011;14204;51.262;5.488;2022-09-27T17:48:53;14.05;;;4.28;;
26536;SDS011;14204;51.262;5.488;2022-09-27T17:51:38;8.52;;;3.60;;